createdAt,value
2023-01-27T04:54:30.765Z,547.00
2023-01-27T04:55:30.748Z,517.00
2023-01-27T04:56:30.739Z,509.00
2023-01-27T04:57:30.745Z,504.00
2023-01-27T04:58:30.758Z,528.00
2023-01-27T04:59:30.769Z,570.00
2023-01-27T05:00:30.796Z,574.00
2023-01-27T05:01:30.795Z,533.00
2023-01-27T05:02:30.781Z,510.00
2023-01-27T05:03:30.779Z,512.00
2023-01-27T05:04:30.772Z,520.00
2023-01-27T05:05:30.795Z,542.00
2023-01-27T05:06:30.784Z,590.00
2023-01-27T05:07:32.236Z,584.00
2023-01-27T05:08:30.789Z,548.00
2023-01-27T05:09:30.793Z,536.00
2023-01-27T05:10:30.791Z,531.00
2023-01-27T05:11:30.897Z,526.00
2023-01-27T05:12:30.812Z,575.00
2023-01-27T05:13:30.790Z,607.00
2023-01-27T05:14:30.795Z,571.00
2023-01-27T05:15:30.848Z,530.00
2023-01-27T05:16:30.844Z,510.00
2023-01-27T05:17:30.806Z,530.00
2023-01-27T05:18:30.803Z,529.00
2023-01-27T05:19:30.795Z,590.00
2023-01-27T05:20:30.806Z,609.00
2023-01-27T05:21:30.838Z,584.00
2023-01-27T05:22:30.803Z,548.00
2023-01-27T05:23:30.817Z,533.00
2023-01-27T05:24:30.878Z,530.00
2023-01-27T05:25:30.831Z,538.00
2023-01-27T05:26:30.797Z,591.00
2023-01-27T05:27:30.795Z,624.00
2023-01-27T05:28:30.786Z,583.00
2023-01-27T05:29:30.790Z,540.00
2023-01-27T05:30:30.826Z,528.00
2023-01-27T05:31:30.898Z,533.00
2023-01-27T05:32:30.794Z,546.00
2023-01-27T05:33:30.837Z,606.00
2023-01-27T05:34:30.791Z,610.00
2023-01-27T05:35:30.821Z,577.00
2023-01-27T05:36:30.805Z,549.00
2023-01-27T05:37:30.802Z,534.00
2023-01-27T05:38:30.810Z,547.00
2023-01-27T05:39:30.814Z,566.00
2023-01-27T05:40:30.815Z,616.00
2023-01-27T05:41:30.792Z,622.00
2023-01-27T05:42:30.795Z,569.00
2023-01-27T05:43:30.804Z,542.00
2023-01-27T05:44:30.812Z,549.00
2023-01-27T05:45:30.810Z,555.00
2023-01-27T05:46:30.876Z,573.00
2023-01-27T05:47:30.802Z,610.00
2023-01-27T05:48:30.830Z,605.00
2023-01-27T05:49:30.841Z,581.00
2023-01-27T05:50:30.801Z,551.00
2023-01-27T05:51:30.821Z,556.00
2023-01-27T05:52:30.819Z,561.00
2023-01-27T05:53:30.847Z,600.00
2023-01-27T05:54:30.845Z,633.00
2023-01-27T05:55:30.829Z,611.00
2023-01-27T05:56:30.836Z,580.00
2023-01-27T05:57:30.830Z,568.00
2023-01-27T05:58:30.837Z,570.00
2023-01-27T05:59:30.834Z,565.00
2023-01-27T06:00:30.860Z,621.00
2023-01-27T06:01:30.897Z,650.00
2023-01-27T06:02:30.882Z,617.00
2023-01-27T06:03:30.845Z,580.00
2023-01-27T06:04:30.828Z,578.00
2023-01-27T06:05:30.853Z,573.00
2023-01-27T06:06:30.836Z,588.00
2023-01-27T06:07:30.830Z,632.00
2023-01-27T06:08:30.853Z,650.00
2023-01-27T06:09:30.890Z,630.00
2023-01-27T06:10:30.862Z,595.00
2023-01-27T06:11:30.866Z,630.00
2023-01-27T06:12:30.870Z,646.00
2023-01-27T06:13:30.878Z,662.00
2023-01-27T06:14:30.888Z,745.00
2023-01-27T06:15:30.904Z,859.00
2023-01-27T06:16:30.973Z,946.00
2023-01-27T06:17:30.905Z,971.00
2023-01-27T06:18:30.917Z,1059.00
2023-01-27T06:19:30.907Z,1049.00
2023-01-27T06:20:30.886Z,1082.00
2023-01-27T06:21:30.881Z,1098.00
2023-01-27T06:23:30.904Z,1139.00
2023-01-27T06:24:30.948Z,1152.00
2023-01-27T06:25:30.885Z,1163.00
2023-01-27T06:26:30.867Z,1188.00
2023-01-27T06:27:30.878Z,1208.00
2023-01-27T06:28:30.874Z,1211.00
2023-01-27T06:29:30.854Z,1226.00
2023-01-27T06:30:30.882Z,1227.00
2023-01-27T06:31:30.899Z,1230.00
2023-01-27T06:32:30.838Z,1230.00
2023-01-27T06:33:30.838Z,1248.00
2023-01-27T06:34:30.881Z,1289.00
2023-01-27T06:35:30.837Z,1340.00
2023-01-27T06:36:30.819Z,1431.00
2023-01-27T06:37:30.833Z,1440.00
2023-01-27T06:38:30.820Z,1441.00
2023-01-27T06:39:30.847Z,1450.00
2023-01-27T06:40:30.843Z,1457.00
2023-01-27T06:41:30.808Z,1482.00
2023-01-27T06:42:30.781Z,1498.00
2023-01-27T06:43:30.783Z,1475.00
2023-01-27T06:44:30.780Z,1436.00
2023-01-27T06:45:30.777Z,1392.00
2023-01-27T06:46:30.867Z,1430.00
2023-01-27T06:47:30.753Z,1443.00
2023-01-27T06:48:30.737Z,1451.00
2023-01-27T06:49:30.752Z,1485.00
2023-01-27T06:50:30.749Z,1493.00
2023-01-27T06:51:30.716Z,1476.00
2023-01-27T06:52:30.720Z,1491.00
2023-01-27T06:53:30.687Z,1547.00
2023-01-27T06:54:30.707Z,1545.00
2023-01-27T06:55:30.674Z,1604.00
2023-01-27T06:56:30.674Z,1646.00
2023-01-27T06:57:30.657Z,1691.00
2023-01-27T06:58:30.668Z,1697.00
2023-01-27T06:59:30.660Z,1695.00
2023-01-27T07:00:30.732Z,1686.00
2023-01-27T07:01:30.674Z,1737.00
2023-01-27T07:02:30.667Z,1743.00
2023-01-27T07:03:30.595Z,1744.00
2023-01-27T07:04:30.607Z,1747.00
2023-01-27T07:05:30.587Z,1754.00
2023-01-27T07:06:30.548Z,1780.00
2023-01-27T07:07:30.559Z,1809.00
2023-01-27T07:08:30.529Z,1854.00
2023-01-27T07:09:35.395Z,1860.00
2023-01-27T07:10:31.499Z,1862.00
2023-01-27T07:11:30.541Z,1866.00
2023-01-27T07:12:30.504Z,1863.00
2023-01-27T07:13:30.443Z,1877.00
2023-01-27T07:14:30.450Z,1896.00
2023-01-27T07:15:30.444Z,1883.00
2023-01-27T07:16:30.455Z,1869.00
2023-01-27T07:17:30.419Z,1868.00
2023-01-27T07:18:30.419Z,1880.00
2023-01-27T07:19:30.398Z,1868.00
2023-01-27T07:20:30.388Z,1885.00
2023-01-27T07:21:30.370Z,1890.00
2023-01-27T07:22:30.368Z,1913.00
2023-01-27T07:23:30.393Z,1910.00
2023-01-27T07:24:30.372Z,1883.00
2023-01-27T07:25:30.289Z,1894.00
2023-01-27T07:26:30.299Z,1884.00
2023-01-27T07:27:30.299Z,1895.00
2023-01-27T07:28:30.275Z,1901.00
2023-01-27T07:29:30.256Z,1896.00
2023-01-27T07:30:30.364Z,1899.00
2023-01-27T07:31:30.320Z,1902.00
2023-01-27T07:32:30.208Z,1904.00
2023-01-27T07:33:30.214Z,1908.00
2023-01-27T07:34:30.241Z,1909.00
2023-01-27T07:35:30.198Z,1895.00
2023-01-27T07:36:30.160Z,1900.00
2023-01-27T07:37:30.146Z,1897.00
2023-01-27T07:38:30.143Z,1913.00
2023-01-27T07:39:30.109Z,1913.00
2023-01-27T07:40:30.111Z,1897.00
2023-01-27T07:41:30.079Z,1925.00
2023-01-27T07:42:30.128Z,1939.00
2023-01-27T07:43:30.030Z,1911.00
2023-01-27T07:44:30.014Z,1890.00
2023-01-27T07:45:30.099Z,1868.00
2023-01-27T07:46:30.000Z,1650.00
2023-01-27T07:47:29.978Z,1555.00
2023-01-27T07:48:29.961Z,1708.00
2023-01-27T07:49:29.941Z,1678.00
2023-01-27T07:50:29.990Z,1722.00
2023-01-27T07:51:29.908Z,1701.00
2023-01-27T07:52:29.902Z,1707.00
2023-01-27T07:53:29.910Z,1738.00
2023-01-27T07:54:29.928Z,1716.00
2023-01-27T07:55:29.891Z,1725.00
2023-01-27T07:56:29.845Z,1717.00
2023-01-27T07:57:29.866Z,1706.00
2023-01-27T07:58:29.833Z,1715.00
2023-01-27T07:59:29.811Z,1839.00
2023-01-27T08:00:29.862Z,1850.00
2023-01-27T08:01:29.774Z,2234.00
2023-01-27T08:02:29.743Z,2086.00
2023-01-27T08:03:29.855Z,2288.00
2023-01-27T08:04:31.639Z,2162.00
2023-01-27T08:05:30.790Z,2104.00
2023-01-27T08:06:29.684Z,2239.00
2023-01-27T08:07:29.648Z,2348.00
2023-01-27T08:08:29.635Z,2253.00
2023-01-27T08:09:29.620Z,2069.00
2023-01-27T08:10:29.630Z,1967.00
2023-01-27T08:11:29.566Z,2496.00
2023-01-27T08:12:29.552Z,2183.00
2023-01-27T08:13:29.555Z,2032.00
2023-01-27T08:14:29.529Z,1972.00
2023-01-27T08:15:29.528Z,1949.00
2023-01-27T08:16:29.524Z,1912.00
2023-01-27T08:17:29.467Z,1916.00
2023-01-27T08:18:29.440Z,1909.00
2023-01-27T08:19:29.463Z,1910.00
2023-01-27T08:20:29.444Z,1923.00
2023-01-27T08:21:29.428Z,1914.00
2023-01-27T08:22:29.377Z,1914.00
2023-01-27T08:23:29.370Z,1921.00
2023-01-27T08:24:29.404Z,1922.00
2023-01-27T08:25:29.319Z,1921.00
2023-01-27T08:26:29.291Z,1908.00
2023-01-27T08:27:29.279Z,1913.00
2023-01-27T08:28:29.304Z,1909.00
2023-01-27T08:29:29.228Z,1907.00
2023-01-27T08:30:29.266Z,1925.00
2023-01-27T08:31:29.236Z,1912.00
2023-01-27T08:32:29.215Z,1913.00
2023-01-27T08:33:29.182Z,1930.00
2023-01-27T08:34:29.139Z,1927.00
2023-01-27T08:35:29.174Z,1923.00
2023-01-27T08:36:29.114Z,1930.00
2023-01-27T08:37:29.085Z,1926.00
2023-01-27T08:38:29.081Z,1921.00
2023-01-27T08:39:29.057Z,1889.00
2023-01-27T08:40:29.068Z,1893.00
2023-01-27T08:41:29.031Z,1899.00
2023-01-27T08:42:29.046Z,1869.00
2023-01-27T08:43:28.998Z,1843.00
2023-01-27T08:44:29.005Z,1847.00
2023-01-27T08:45:28.951Z,1801.00
2023-01-27T08:46:29.011Z,1759.00
2023-01-27T08:47:28.976Z,1766.00
2023-01-27T08:48:28.924Z,1737.00
2023-01-27T08:49:28.885Z,1731.00
2023-01-27T08:50:28.867Z,1668.00
2023-01-27T08:51:28.940Z,1665.00
2023-01-27T08:52:28.840Z,1630.00
2023-01-27T08:53:28.831Z,1658.00
2023-01-27T08:54:28.817Z,1604.00
2023-01-27T08:55:29.841Z,1580.00
2023-01-27T08:56:28.798Z,1548.00
2023-01-27T08:57:28.774Z,1519.00
2023-01-27T08:58:28.773Z,1490.00
2023-01-27T08:59:28.774Z,1515.00
2023-01-27T09:00:28.720Z,1520.00
2023-01-27T09:01:28.750Z,1457.00
2023-01-27T09:02:28.690Z,1416.00
2023-01-27T09:03:28.708Z,1356.00
2023-01-27T09:04:28.685Z,1437.00
2023-01-27T09:05:28.640Z,1397.00
2023-01-27T09:06:28.648Z,1346.00
2023-01-27T09:07:28.618Z,1359.00
2023-01-27T09:08:28.647Z,1354.00
2023-01-27T09:09:28.590Z,1249.00
2023-01-27T09:10:28.591Z,1275.00
2023-01-27T09:11:28.596Z,1327.00
2023-01-27T09:12:28.570Z,1301.00
2023-01-27T09:13:28.592Z,1280.00
2023-01-27T09:14:28.557Z,1291.00
2023-01-27T10:08:20.885Z,509.00
2023-01-27T10:09:20.817Z,508.00
2023-01-27T10:10:20.836Z,499.00
2023-01-27T10:11:20.754Z,503.00
2023-01-27T10:12:20.707Z,499.00
2023-01-27T10:13:20.677Z,511.00
2023-01-27T10:14:20.678Z,511.00
2023-01-27T10:15:20.599Z,508.00
2023-01-27T10:16:20.621Z,515.00
2023-01-27T10:17:20.576Z,509.00
2023-01-27T10:18:20.519Z,500.00
2023-01-27T10:19:20.506Z,500.00
2023-01-27T10:20:20.570Z,501.00
2023-01-27T10:21:20.400Z,504.00
2023-01-27T10:22:20.502Z,504.00
2023-01-27T10:23:20.328Z,508.00
2023-01-27T10:24:20.414Z,507.00
2023-01-27T10:25:20.266Z,531.00
2023-01-27T10:26:20.239Z,541.00
2023-01-27T10:27:20.262Z,560.00
2023-01-27T10:28:20.351Z,558.00
2023-01-27T10:29:20.236Z,559.00
2023-01-27T10:30:20.128Z,571.00
2023-01-27T10:31:20.181Z,589.00
2023-01-27T10:32:20.061Z,592.00
2023-01-27T10:33:20.047Z,593.00
2023-01-27T10:34:19.952Z,594.00
2023-01-27T10:35:19.915Z,599.00
2023-01-27T10:36:19.909Z,600.00
2023-01-27T10:37:19.941Z,603.00
2023-01-27T10:38:20.135Z,595.00
2023-01-27T10:39:19.812Z,607.00
2023-01-27T10:40:19.768Z,616.00
2023-01-27T10:41:19.724Z,624.00
2023-01-27T10:42:19.696Z,622.00
2023-01-27T10:43:19.751Z,625.00
2023-01-27T10:44:19.680Z,638.00
2023-01-27T10:45:19.629Z,611.00
2023-01-27T10:46:19.571Z,627.00
2023-01-27T10:47:19.752Z,1301.00
2023-01-27T10:48:19.556Z,599.00
2023-01-27T10:49:21.560Z,519.00
2023-01-27T10:50:19.594Z,498.00
2023-01-27T10:51:19.426Z,487.00
2023-01-27T10:52:19.452Z,568.00
2023-01-27T10:53:19.812Z,598.00
2023-01-27T10:54:19.377Z,576.00
2023-01-27T10:55:19.382Z,520.00
2023-01-27T10:56:19.340Z,444.00
2023-01-27T10:57:19.469Z,489.00
2023-01-27T10:58:19.825Z,500.00
2023-01-27T10:59:19.342Z,498.00
2023-01-27T11:00:46.518Z,530.00
2023-01-27T11:02:19.809Z,535.00
2023-01-27T11:03:19.294Z,559.00
2023-01-27T11:04:19.214Z,612.00
2023-01-27T11:05:19.672Z,663.00
2023-01-27T11:06:19.133Z,891.00
2023-01-27T11:07:19.185Z,1030.00
2023-01-27T11:08:19.147Z,1161.00
2023-01-27T11:09:19.065Z,2080.00
2023-01-27T11:10:19.014Z,1859.00
2023-01-27T11:11:19.037Z,1410.00
2023-01-27T11:12:18.963Z,1344.00
2023-01-27T11:15:18.924Z,1335.00
2023-01-27T11:16:19.301Z,1386.00
2023-01-27T11:17:18.802Z,1383.00
2023-01-27T11:18:18.803Z,1431.00
2023-01-27T11:19:18.737Z,1405.00
2023-01-27T11:20:18.673Z,1343.00
2023-01-27T11:21:18.672Z,1369.00
2023-01-27T11:22:18.615Z,1429.00
2023-01-27T11:23:18.646Z,1410.00
2023-01-27T11:24:18.602Z,1459.00
2023-01-27T11:25:18.522Z,1460.00
2023-01-27T11:26:18.460Z,1461.00
2023-01-27T11:27:18.457Z,1468.00
2023-01-27T11:28:18.402Z,1485.00
2023-01-27T11:29:18.495Z,1506.00
2023-01-27T11:30:18.698Z,1518.00
2023-01-27T11:31:18.395Z,1516.00
2023-01-27T11:32:18.291Z,1532.00
2023-01-27T11:33:18.241Z,1517.00
2023-01-27T11:34:18.154Z,1517.00
2023-01-27T11:35:18.308Z,1510.00
2023-01-27T11:36:18.105Z,1479.00
2023-01-27T11:37:18.238Z,1518.00
2023-01-27T11:38:18.036Z,1514.00
2023-01-27T11:39:18.794Z,1530.00
2023-01-27T11:40:17.918Z,1578.00
2023-01-27T11:41:17.881Z,1600.00
2023-01-27T11:42:17.845Z,1606.00
2023-01-27T11:44:17.751Z,1614.00
2023-01-27T11:45:17.732Z,1636.00
2023-01-27T11:46:17.691Z,1631.00
2023-01-27T11:47:17.605Z,1627.00
2023-01-27T11:48:17.767Z,1628.00
2023-01-27T11:49:17.524Z,1614.00
2023-01-27T11:50:17.514Z,1609.00
2023-01-27T11:51:17.458Z,1623.00
2023-01-27T11:52:17.406Z,1630.00
2023-01-27T11:53:17.440Z,1636.00
2023-01-27T11:54:17.321Z,1615.00
2023-01-27T11:55:17.253Z,1624.00
2023-01-27T11:56:17.446Z,1628.00
2023-01-27T11:57:17.226Z,1650.00
2023-01-27T11:58:17.139Z,1629.00
2023-01-27T11:59:17.132Z,1612.00
2023-01-27T12:00:17.206Z,1607.00
2023-01-27T12:01:17.683Z,1596.00
2023-01-27T12:02:17.021Z,1587.00
2023-01-27T12:03:17.377Z,1570.00
2023-01-27T12:04:20.199Z,1532.00
2023-01-27T12:05:19.372Z,1533.00
2023-01-27T12:06:17.807Z,1533.00
2023-01-27T12:07:18.141Z,1536.00
2023-01-27T12:08:16.790Z,1530.00
2023-01-27T12:09:16.935Z,1551.00
2023-01-27T12:10:19.945Z,1537.00
2023-01-27T12:11:16.828Z,1564.00
2023-01-27T12:12:16.642Z,1572.00
2023-01-27T12:13:16.606Z,1542.00
2023-01-27T12:14:16.742Z,1539.00
2023-01-27T12:15:16.527Z,1404.00
2023-01-27T12:16:16.612Z,1382.00
2023-01-27T12:17:16.547Z,1372.00
2023-01-27T12:18:16.457Z,1397.00
2023-01-27T12:19:16.395Z,1329.00
2023-01-27T12:20:16.504Z,1316.00
2023-01-27T12:21:16.348Z,1308.00
2023-01-27T12:22:16.373Z,1285.00
2023-01-27T12:23:16.209Z,1298.00
2023-01-27T12:24:16.188Z,1361.00
2023-01-27T12:25:16.123Z,1407.00
2023-01-27T12:26:16.155Z,1318.00
2023-01-27T12:27:16.060Z,1362.00
2023-01-27T12:28:16.730Z,1326.00
2023-01-27T12:29:15.947Z,1380.00
2023-01-27T12:30:16.265Z,1381.00
2023-01-27T12:31:16.060Z,1360.00
2023-01-27T12:32:15.893Z,1339.00
2023-01-27T12:33:15.789Z,1342.00
2023-01-27T12:34:15.787Z,1347.00
2023-01-27T12:35:15.738Z,1367.00
2023-01-27T12:36:15.666Z,1400.00
2023-01-27T12:37:15.647Z,1461.00
2023-01-27T12:38:15.603Z,1481.00
2023-01-27T12:39:15.561Z,1451.00
2023-01-27T12:40:15.818Z,1431.00
2023-01-27T12:41:15.480Z,1422.00
2023-01-27T12:42:15.426Z,1460.00
2023-01-27T12:43:15.362Z,1476.00
2023-01-27T12:44:15.345Z,1444.00
2023-01-27T12:45:15.333Z,1399.00
2023-01-27T12:46:15.288Z,1429.00
2023-01-27T12:47:15.255Z,1394.00
2023-01-27T12:48:15.207Z,1403.00
2023-01-27T12:49:15.149Z,1409.00
2023-01-27T12:50:15.596Z,1434.00
2023-01-27T12:51:15.077Z,1435.00
2023-01-27T12:52:15.063Z,1399.00
2023-01-27T12:53:15.044Z,1368.00
2023-01-27T12:54:14.986Z,1328.00
2023-01-27T12:55:14.997Z,1332.00
2023-01-27T12:56:14.903Z,1338.00
2023-01-27T12:57:14.856Z,1322.00
2023-01-27T12:58:14.799Z,1329.00
2023-01-27T12:59:14.764Z,1278.00
2023-01-27T13:00:15.084Z,1280.00
2023-01-27T13:01:14.704Z,1288.00
2023-01-27T14:24:11.346Z,1116.00
2023-01-27T14:25:11.230Z,1106.00
2023-01-27T14:26:11.258Z,1102.00
2023-01-27T14:27:11.168Z,1107.00
2023-01-27T14:28:11.131Z,1106.00
2023-01-27T14:30:11.052Z,1100.00
2023-01-27T14:31:11.136Z,1095.00
2023-01-27T14:32:11.001Z,1121.00
2023-01-27T14:33:10.965Z,1115.00
2023-01-27T14:34:10.915Z,1121.00
2023-01-27T14:35:10.876Z,1110.00
2023-01-27T14:36:10.839Z,1112.00
2023-01-27T14:37:10.824Z,1092.00
2023-01-27T14:38:10.746Z,1101.00
2023-01-27T14:39:10.738Z,1101.00
2023-01-27T14:40:10.702Z,1111.00
2023-01-27T14:41:10.653Z,1102.00
2023-01-27T14:42:10.603Z,1104.00
2023-01-27T14:43:10.552Z,1102.00
2023-01-27T14:44:10.531Z,1106.00
2023-01-27T14:45:10.473Z,1085.00
2023-01-27T14:46:10.428Z,1081.00
2023-01-27T14:47:10.444Z,1091.00
2023-01-27T14:48:10.398Z,1085.00
2023-01-27T14:49:10.349Z,1087.00
2023-01-27T14:50:10.301Z,1087.00
2023-01-27T14:51:10.303Z,1070.00
2023-01-27T14:52:10.305Z,1084.00
2023-01-27T14:53:10.228Z,1074.00
2023-01-27T14:54:10.177Z,1084.00
2023-01-27T14:55:10.123Z,1078.00
2023-01-27T14:56:10.081Z,1091.00
2023-01-27T14:57:10.086Z,1088.00
2023-01-27T14:58:10.032Z,1094.00
2023-01-27T14:59:09.960Z,1101.00
2023-01-27T15:00:09.955Z,1100.00
2023-01-27T15:01:09.976Z,1104.00
2023-01-27T15:02:09.956Z,1108.00
2023-01-27T15:03:09.830Z,1098.00
2023-01-27T15:04:09.803Z,1096.00
2023-01-27T15:05:09.783Z,1101.00
2023-01-27T15:06:09.736Z,1092.00
2023-01-27T15:07:09.747Z,1102.00
2023-01-27T15:08:09.642Z,1093.00
2023-01-27T15:09:09.654Z,1097.00
2023-01-27T15:10:09.600Z,1096.00
2023-01-27T15:11:09.571Z,1090.00
2023-01-27T15:12:09.569Z,1097.00
2023-01-27T15:13:09.475Z,1105.00
2023-01-27T15:14:09.435Z,1094.00
2023-01-27T15:15:09.412Z,1107.00
2023-01-27T15:16:10.331Z,1093.00
2023-01-27T15:17:09.401Z,1097.00
2023-01-27T15:18:09.330Z,1101.00
2023-01-27T15:19:09.249Z,1081.00
2023-01-27T15:20:09.227Z,1096.00
2023-01-27T15:21:09.169Z,1105.00
2023-01-27T15:22:09.172Z,1092.00
2023-01-27T15:23:09.128Z,1090.00
2023-01-27T15:24:09.119Z,1092.00
2023-01-27T15:25:09.036Z,1088.00
2023-01-27T15:26:09.048Z,1089.00
2023-01-27T15:27:09.066Z,1092.00
2023-01-27T15:28:08.953Z,1088.00
2023-01-27T15:29:08.898Z,1090.00
2023-01-27T15:30:08.864Z,1076.00
2023-01-27T15:31:09.032Z,1080.00
2023-01-27T15:32:08.911Z,1084.00
2023-01-27T15:33:08.772Z,1090.00
2023-01-27T15:34:08.749Z,1098.00
2023-01-27T15:35:08.695Z,1078.00
2023-01-27T15:36:08.649Z,1066.00
2023-01-27T15:37:08.646Z,1083.00
2023-01-27T15:38:08.614Z,1074.00
2023-01-27T15:39:08.560Z,1090.00
2023-01-27T15:40:08.584Z,1071.00
2023-01-27T15:41:08.471Z,1078.00
2023-01-27T15:42:08.426Z,1069.00
2023-01-27T15:43:08.374Z,1069.00
2023-01-27T15:44:08.337Z,1049.00
2023-01-27T15:45:08.342Z,1066.00
2023-01-27T15:46:08.390Z,1073.00
2023-01-27T15:47:08.292Z,1067.00
2023-01-27T15:48:08.276Z,1051.00
2023-01-27T15:49:08.167Z,1063.00
2023-01-27T15:50:08.170Z,1068.00
2023-01-27T15:51:08.132Z,1060.00
2023-01-27T15:52:08.082Z,1063.00
2023-01-27T15:53:08.418Z,1060.00
2023-01-27T15:54:07.988Z,1049.00
2023-01-27T15:55:07.937Z,1063.00
2023-01-27T15:56:07.920Z,1055.00
2023-01-27T15:57:07.910Z,1039.00
2023-01-27T15:58:07.871Z,1037.00
2023-01-27T15:59:07.822Z,1053.00
2023-01-27T16:00:07.827Z,1045.00
2023-01-27T16:01:07.812Z,1043.00
2023-01-27T16:02:07.762Z,1036.00
2023-01-27T16:03:07.736Z,1056.00
2023-01-27T16:04:07.652Z,1041.00
2023-01-27T16:05:07.652Z,1032.00
2023-01-27T16:06:07.602Z,1045.00
2023-01-27T16:07:07.571Z,1046.00
2023-01-27T16:08:07.572Z,1057.00
2023-01-27T16:09:07.516Z,1032.00
2023-01-27T16:10:07.484Z,1037.00
2023-01-27T16:11:07.429Z,1048.00
2023-01-27T16:12:07.395Z,1033.00
2023-01-27T16:13:07.395Z,1042.00
2023-01-27T16:14:07.320Z,1032.00
2023-01-27T16:15:07.282Z,1034.00
2023-01-27T16:16:07.271Z,1031.00
2023-01-27T16:17:07.220Z,1029.00
2023-01-27T16:18:07.208Z,1019.00
2023-01-27T16:19:08.601Z,1024.00
2023-01-27T16:20:07.116Z,1024.00
2023-01-27T16:21:07.111Z,1026.00
2023-01-27T16:22:07.043Z,1029.00
2023-01-27T16:23:07.093Z,1019.00
2023-01-27T16:24:07.034Z,1009.00
2023-01-27T16:25:06.956Z,1015.00
2023-01-27T16:26:06.961Z,1018.00
2023-01-27T16:27:06.905Z,1024.00
2023-01-27T16:28:06.873Z,1005.00
2023-01-27T16:29:06.829Z,1002.00
2023-01-27T16:30:06.787Z,1002.00
2023-01-27T16:31:06.785Z,1012.00
2023-01-27T16:32:06.861Z,1010.00
2023-01-27T16:33:06.810Z,996.00
2023-01-27T16:34:06.666Z,1020.00
2023-01-27T16:35:06.615Z,1014.00
2023-01-27T16:36:06.579Z,1002.00
2023-01-27T16:37:06.567Z,1002.00
2023-01-27T16:38:06.540Z,1001.00
2023-01-27T16:39:06.998Z,995.00
2023-01-27T16:40:06.453Z,1004.00
2023-01-27T16:41:06.419Z,1026.00
2023-01-27T16:42:06.402Z,990.00
2023-01-27T16:43:06.359Z,1023.00
2023-01-27T16:44:06.312Z,981.00
2023-01-27T16:45:06.258Z,999.00
2023-01-27T16:46:06.264Z,1009.00
2023-01-27T16:47:16.456Z,992.00
2023-01-27T16:48:07.163Z,994.00
2023-01-27T16:49:06.158Z,993.00
2023-01-27T16:50:06.175Z,998.00
2023-01-27T16:51:06.090Z,1017.00
2023-01-27T16:52:06.058Z,994.00
2023-01-27T16:53:06.005Z,982.00
2023-01-27T16:54:05.970Z,980.00
2023-01-27T16:55:05.917Z,974.00
2023-01-27T16:56:05.895Z,983.00
2023-01-27T16:57:05.887Z,976.00
2023-01-27T16:58:05.843Z,990.00
2023-01-27T16:59:05.825Z,973.00
2023-01-27T17:00:05.772Z,971.00
2023-01-27T17:01:05.816Z,1000.00
2023-01-27T17:02:05.702Z,982.00
2023-01-27T17:03:05.690Z,983.00
2023-01-27T17:04:19.152Z,982.00
2023-01-27T17:06:05.581Z,985.00
2023-01-27T17:07:05.565Z,995.00
2023-01-27T17:08:05.493Z,985.00
2023-01-27T17:09:05.498Z,985.00
2023-01-27T17:10:05.423Z,971.00
2023-01-27T17:11:05.407Z,988.00
2023-01-27T17:12:05.368Z,957.00
2023-01-27T17:13:05.341Z,996.00
2023-01-27T17:14:05.332Z,997.00
2023-01-27T17:15:05.265Z,994.00
2023-01-27T17:16:05.245Z,995.00
2023-01-27T17:17:05.220Z,994.00
2023-01-27T17:18:05.145Z,987.00
2023-01-27T17:19:05.147Z,968.00
2023-01-27T17:20:05.110Z,971.00
2023-01-27T17:21:05.056Z,985.00
2023-01-27T17:22:05.003Z,948.00
2023-01-27T17:23:04.984Z,976.00
2023-01-27T17:24:05.001Z,966.00
2023-01-27T17:25:04.921Z,963.00
2023-01-27T17:26:04.889Z,965.00
2023-01-27T17:27:04.845Z,938.00
2023-01-27T17:28:04.803Z,949.00
2023-01-27T17:29:04.798Z,962.00
2023-01-27T17:30:04.739Z,955.00
2023-01-27T17:31:07.168Z,978.00
2023-01-27T17:32:04.806Z,990.00
2023-01-27T21:14:56.955Z,758.00
2023-01-27T21:15:56.931Z,759.00
2023-01-27T21:16:56.980Z,759.00
2023-01-27T21:17:56.873Z,759.00
2023-01-27T21:18:56.846Z,757.00
2023-01-27T21:19:56.804Z,727.00
2023-01-27T21:20:56.774Z,738.00
2023-01-27T21:21:56.741Z,747.00
2023-01-27T21:22:56.709Z,743.00
2023-01-27T21:23:56.722Z,719.00
2023-01-27T21:24:56.654Z,723.00
2023-01-27T21:25:56.623Z,744.00
2023-01-27T21:26:56.572Z,749.00
2023-01-27T21:27:56.546Z,728.00
2023-01-27T21:28:56.562Z,703.00
2023-01-27T21:29:56.469Z,725.00
2023-01-27T21:30:56.571Z,704.00
2023-01-27T21:31:56.449Z,729.00
2023-01-27T21:32:56.381Z,741.00
2023-01-27T21:33:56.352Z,733.00
2023-01-27T21:34:56.318Z,741.00
2023-01-27T21:35:56.266Z,736.00
2023-01-27T21:36:56.233Z,741.00
2023-01-27T21:37:56.225Z,711.00
2023-01-27T21:38:56.182Z,706.00
2023-01-27T21:39:56.150Z,728.00
2023-01-27T21:40:56.128Z,710.00
2023-01-27T21:41:56.104Z,715.00
2023-01-27T21:42:56.069Z,717.00
2023-01-27T21:43:56.034Z,725.00
2023-01-27T21:44:55.986Z,724.00
2023-01-27T21:45:55.970Z,705.00
2023-01-27T21:46:55.999Z,685.00
2023-01-27T21:47:55.966Z,712.00
2023-01-27T21:48:55.902Z,705.00
2023-01-27T21:49:55.853Z,724.00
2023-01-27T21:50:56.019Z,715.00
2023-01-27T21:51:55.802Z,735.00
2023-01-27T21:52:55.816Z,725.00
2023-01-27T21:53:55.771Z,686.00
2023-01-27T21:54:55.739Z,727.00
2023-01-27T21:55:55.735Z,722.00
2023-01-27T21:56:55.702Z,688.00
2023-01-27T21:57:55.685Z,703.00
2023-01-27T21:58:55.651Z,696.00
2023-01-27T21:59:55.615Z,701.00
2023-01-27T22:00:55.617Z,695.00
2023-01-27T22:01:55.556Z,695.00
2023-01-27T22:02:55.554Z,722.00
2023-01-27T22:03:55.522Z,704.00
2023-01-27T22:04:55.532Z,712.00
2023-01-27T22:05:55.425Z,699.00
2023-01-27T22:06:55.414Z,706.00
2023-01-27T22:07:55.391Z,692.00
2023-01-27T22:08:55.348Z,708.00
2023-01-27T22:09:55.332Z,670.00
2023-01-27T22:10:55.322Z,690.00
2023-01-27T22:11:55.280Z,716.00
2023-01-27T22:12:55.265Z,688.00
2023-01-27T22:13:55.224Z,691.00
2023-01-27T22:14:55.184Z,668.00
2023-01-27T22:15:55.143Z,683.00
2023-01-27T22:16:55.121Z,704.00
2023-01-27T22:17:55.145Z,699.00
2023-01-27T22:18:55.098Z,684.00
2023-01-27T22:19:55.060Z,687.00
2023-01-27T22:20:55.040Z,701.00
2023-01-27T22:21:54.996Z,708.00
2023-01-27T22:22:54.990Z,703.00
2023-01-27T22:23:55.048Z,710.00
2023-01-27T22:24:54.901Z,710.00
2023-01-27T22:25:54.914Z,710.00
2023-01-27T22:26:54.869Z,682.00
2023-01-27T22:27:54.855Z,706.00
2023-01-27T22:28:54.821Z,701.00
2023-01-27T22:29:54.756Z,675.00
2023-01-27T22:30:54.757Z,675.00
2023-01-27T22:31:54.694Z,669.00
2023-01-27T22:33:54.661Z,690.00
